createdAt,value
2022-08-10T00:01:41.914Z,38.80
2022-08-10T00:04:43.923Z,39.00
2022-08-10T00:07:46.048Z,38.50
2022-08-10T00:10:47.860Z,38.40
2022-08-10T00:13:49.686Z,38.10
2022-08-10T00:16:51.690Z,38.90
2022-08-10T00:20:03.693Z,38.70
2022-08-10T00:23:10.662Z,38.50
2022-08-10T00:26:12.473Z,38.20
2022-08-10T00:29:14.472Z,39.10
2022-08-10T00:32:16.319Z,38.10
2022-08-10T00:35:18.140Z,38.50
2022-08-10T00:38:20.046Z,39.00
2022-08-10T00:41:21.867Z,38.30
2022-08-10T00:44:25.671Z,39.00
2022-08-10T00:47:36.823Z,38.30
2022-08-10T00:50:39.525Z,38.90
2022-08-10T00:53:41.588Z,39.10
2022-08-10T00:57:17.733Z,38.70
2022-08-10T01:00:06.028Z,38.80
2022-08-10T01:03:07.830Z,38.80
2022-08-10T01:06:21.304Z,39.30
2022-08-10T01:09:32.066Z,38.80
2022-08-10T01:12:41.458Z,39.20
2022-08-10T01:15:55.130Z,39.60
2022-08-10T01:19:03.230Z,39.70
2022-08-10T01:22:23.831Z,39.40
2022-08-10T01:25:31.645Z,40.30
2022-08-10T01:28:39.394Z,39.90
2022-08-10T01:31:42.655Z,40.20
2022-08-10T01:34:47.256Z,40.60
2022-08-10T01:37:52.575Z,40.00
2022-08-10T01:41:02.682Z,41.10
2022-08-10T01:44:20.199Z,40.30
2022-08-10T01:47:24.351Z,40.40
2022-08-10T01:50:31.216Z,40.30
2022-08-10T01:53:41.507Z,40.30
2022-08-10T01:56:45.269Z,40.70
2022-08-10T01:59:54.742Z,42.00
2022-08-10T02:03:08.682Z,41.20
2022-08-10T02:06:12.704Z,41.70
2022-08-10T02:09:17.117Z,41.20
2022-08-10T02:12:20.534Z,41.30
2022-08-10T02:15:24.308Z,40.90
2022-08-10T02:18:26.354Z,41.00
2022-08-10T02:21:28.540Z,41.90
2022-08-10T02:24:30.947Z,41.50
2022-08-10T02:27:33.201Z,42.60
2022-08-10T02:30:35.585Z,43.20
2022-08-10T02:33:38.319Z,42.40
2022-08-10T02:36:50.096Z,42.30
2022-08-10T02:39:52.165Z,41.70
2022-08-10T02:45:20.853Z,42.20
2022-08-10T02:46:41.808Z,42.90
2022-08-10T02:49:48.476Z,42.80
2022-08-10T02:52:56.471Z,42.60
2022-08-10T02:56:01.974Z,43.20
2022-08-10T02:59:10.140Z,43.50
2022-08-10T03:02:18.969Z,43.60
2022-08-10T03:05:20.863Z,43.40
2022-08-10T03:08:25.839Z,43.90
2022-08-10T03:12:34.892Z,43.40
2022-08-10T03:14:51.446Z,43.30
2022-08-10T03:17:57.493Z,44.00
2022-08-10T03:21:01.122Z,43.00
2022-08-10T03:24:03.161Z,43.30
2022-08-10T03:27:25.235Z,44.30
2022-08-10T03:30:33.531Z,44.70
2022-08-10T03:33:37.445Z,45.90
2022-08-10T03:36:42.309Z,46.10
2022-08-10T03:39:46.823Z,46.50
2022-08-10T03:42:50.239Z,46.50
2022-08-10T03:45:56.455Z,46.50
2022-08-10T03:49:01.720Z,47.60
2022-08-10T03:52:04.013Z,47.40
2022-08-10T03:55:07.107Z,47.30
2022-08-10T03:58:11.991Z,48.20
2022-08-10T04:01:17.507Z,48.10
2022-08-10T04:04:24.155Z,47.90
2022-08-10T04:07:27.235Z,48.10
2022-08-10T04:10:29.208Z,48.20
2022-08-10T04:13:31.072Z,48.10
2022-08-10T04:16:32.835Z,48.10
2022-08-10T04:19:38.119Z,48.30
2022-08-10T04:22:44.077Z,48.80
2022-08-10T04:25:45.946Z,47.20
2022-08-10T04:28:47.935Z,47.20
2022-08-10T04:31:50.581Z,47.00
2022-08-10T04:34:53.485Z,47.40
2022-08-10T04:37:56.580Z,47.40
2022-08-10T04:40:58.542Z,47.50
2022-08-10T04:44:00.541Z,47.60
2022-08-10T04:47:02.420Z,48.10
2022-08-10T04:50:04.539Z,47.60
2022-08-10T04:53:06.846Z,49.60
2022-08-10T04:56:08.841Z,50.00
2022-08-10T04:59:11.285Z,49.20
2022-08-10T05:02:30.272Z,49.00
2022-08-10T05:05:34.010Z,48.40
2022-08-10T05:08:35.806Z,48.60
2022-08-10T05:11:37.594Z,48.50
2022-08-10T05:14:39.586Z,49.20
2022-08-10T05:18:06.915Z,49.10
2022-08-10T05:21:03.959Z,48.40
2022-08-10T05:24:05.989Z,48.20
2022-08-10T05:27:10.175Z,48.20
2022-08-10T05:30:14.269Z,48.50
2022-08-10T05:33:16.489Z,49.40
2022-08-10T05:36:18.459Z,48.40
2022-08-10T05:39:28.699Z,46.90
2022-08-10T05:42:34.125Z,48.10
2022-08-10T05:46:16.706Z,46.60
2022-08-10T05:49:01.217Z,47.10
2022-08-10T05:52:03.783Z,47.60
2022-08-10T05:55:06.036Z,46.30
2022-08-10T05:58:07.830Z,45.80
2022-08-10T06:01:12.831Z,44.90
2022-08-10T06:04:26.699Z,43.50
2022-08-10T06:07:29.594Z,43.70
2022-08-10T06:10:32.912Z,45.00
2022-08-10T06:13:59.940Z,43.60
2022-08-10T06:16:59.277Z,40.80
2022-08-10T06:20:01.256Z,42.00
2022-08-10T06:23:03.938Z,40.30
2022-08-10T06:26:09.994Z,39.50
2022-08-10T06:29:15.097Z,41.50
2022-08-10T06:32:17.323Z,40.40
2022-08-10T06:35:22.339Z,38.90
2022-08-10T06:38:24.770Z,40.40
2022-08-10T06:41:57.994Z,36.30
2022-08-10T06:44:58.186Z,38.10
2022-08-10T06:48:06.108Z,36.00
2022-08-10T06:51:13.797Z,37.10
2022-08-10T06:54:18.163Z,35.30
2022-08-10T06:57:21.207Z,34.30
2022-08-10T07:00:24.129Z,34.80
2022-08-10T07:03:38.687Z,34.00
2022-08-10T07:06:43.185Z,33.50
2022-08-10T07:09:45.825Z,33.00
2022-08-10T07:12:48.443Z,32.80
2022-08-10T07:15:59.831Z,31.70
2022-08-10T07:19:03.015Z,32.30
2022-08-10T07:22:05.839Z,30.80
2022-08-10T07:25:08.597Z,32.20
2022-08-10T07:28:10.898Z,30.00
2022-08-10T07:31:56.479Z,33.70
2022-08-10T07:34:37.202Z,31.40
2022-08-10T07:37:40.521Z,30.90
2022-08-10T07:40:42.879Z,32.30
2022-08-10T07:43:46.477Z,31.50
2022-08-10T07:46:49.865Z,30.20
2022-08-10T07:49:52.981Z,29.70
2022-08-10T07:52:57.919Z,30.00
2022-08-10T07:56:03.795Z,30.60
2022-08-10T07:59:10.978Z,29.70
2022-08-10T08:02:18.707Z,30.70
2022-08-10T08:05:57.438Z,30.90
2022-08-10T08:08:44.738Z,29.20
2022-08-10T08:11:47.073Z,29.30
2022-08-10T08:14:51.123Z,29.00
2022-08-10T08:17:59.632Z,27.60
2022-08-10T08:21:03.273Z,27.80
2022-08-10T08:24:31.860Z,30.60
2022-08-10T08:27:36.548Z,28.20
2022-08-10T08:30:45.687Z,28.00
2022-08-10T08:33:51.149Z,28.20
2022-08-10T08:36:57.434Z,27.50
2022-08-10T08:40:02.241Z,28.30
2022-08-10T08:43:18.149Z,27.60
2022-08-10T08:46:32.519Z,28.60
2022-08-10T08:50:04.529Z,26.60
2022-08-10T08:53:22.879Z,26.30
2022-08-10T08:56:24.804Z,26.80
2022-08-10T08:59:29.654Z,26.60
2022-08-10T09:02:31.597Z,26.50
2022-08-10T09:05:58.562Z,26.20
2022-08-10T09:09:15.306Z,25.70
2022-08-10T09:12:22.101Z,26.40
2022-08-10T09:15:39.744Z,25.40
2022-08-10T09:18:46.378Z,25.40
2022-08-10T09:22:17.710Z,25.50
2022-08-10T09:25:20.924Z,25.20
2022-08-10T09:28:31.613Z,25.00
2022-08-10T09:31:40.491Z,25.30
2022-08-10T09:36:21.262Z,24.60
2022-08-10T09:38:31.812Z,24.70
2022-08-10T09:41:51.495Z,24.90
2022-08-10T09:44:59.917Z,25.50
2022-08-10T09:48:14.362Z,25.30
2022-08-10T09:51:45.721Z,25.60
2022-08-10T09:54:48.665Z,24.60
2022-08-10T09:57:50.493Z,24.30
2022-08-10T10:01:56.333Z,23.70
2022-08-10T10:04:43.926Z,23.90
2022-08-10T10:07:49.495Z,25.10
2022-08-10T10:10:51.309Z,22.80
2022-08-10T10:14:03.955Z,23.10
2022-08-10T10:17:09.634Z,22.30
2022-08-10T10:20:18.086Z,23.00
2022-08-10T10:23:25.858Z,22.80
2022-08-10T10:26:47.774Z,22.20
2022-08-10T10:29:58.065Z,22.70
2022-08-10T10:33:24.079Z,25.10
2022-08-10T10:36:27.808Z,24.60
2022-08-10T10:39:31.460Z,23.70
2022-08-10T10:42:51.995Z,23.80
2022-08-10T10:45:53.808Z,25.20
2022-08-10T10:49:15.954Z,23.40
2022-08-10T11:03:37.728Z,24.30
2022-08-10T11:06:48.518Z,24.60
2022-08-10T11:10:05.637Z,24.00
2022-08-10T11:14:27.496Z,23.50
2022-08-10T11:17:13.723Z,23.60
2022-08-10T11:20:15.594Z,24.30
2022-08-10T11:23:30.953Z,24.60
2022-08-10T11:26:42.326Z,22.60
2022-08-10T11:29:56.131Z,24.40
2022-08-10T11:33:03.114Z,21.90
2022-08-10T11:36:19.261Z,23.30
2022-08-10T11:39:48.872Z,21.90
2022-08-10T11:42:51.673Z,22.00
2022-08-10T11:45:56.314Z,22.60
2022-08-10T11:49:09.818Z,21.90
2022-08-10T11:52:21.077Z,21.80
2022-08-10T11:55:23.946Z,22.80
2022-08-10T11:58:34.406Z,21.90
2022-08-10T12:01:36.567Z,22.50
2022-08-10T12:04:40.364Z,24.90
2022-08-10T12:10:02.425Z,22.50
2022-08-10T12:11:06.653Z,22.70
2022-08-10T12:14:27.563Z,23.10
2022-08-10T12:17:35.876Z,22.50
2022-08-10T12:20:39.023Z,22.80
2022-08-10T12:23:45.405Z,23.40
2022-08-10T12:26:53.839Z,22.80
2022-08-10T12:29:59.387Z,22.90
2022-08-10T12:33:03.790Z,22.30
2022-08-10T12:36:22.447Z,22.60
2022-08-10T12:39:28.985Z,22.20
2022-08-10T12:42:40.538Z,22.60
2022-08-10T12:46:04.352Z,22.90
2022-08-10T12:49:11.012Z,22.10
2022-08-10T12:52:27.417Z,21.70
2022-08-10T12:55:31.218Z,22.00
2022-08-10T12:58:59.990Z,22.30
2022-08-10T13:02:06.964Z,22.40
2022-08-10T13:05:14.763Z,22.10
2022-08-10T13:08:26.596Z,21.50
2022-08-10T13:12:37.309Z,21.40
2022-08-10T13:14:58.041Z,22.60
2022-08-10T13:18:02.830Z,22.10
2022-08-10T13:21:20.736Z,21.50
2022-08-10T13:24:25.382Z,21.60
2022-08-10T13:28:01.130Z,22.00
2022-08-10T13:30:52.054Z,21.40
2022-08-10T13:34:38.814Z,21.70
2022-08-10T13:37:23.234Z,22.30
2022-08-10T13:40:26.330Z,22.20
2022-08-10T13:43:28.346Z,21.40
2022-08-10T13:46:30.295Z,22.00
2022-08-10T13:49:41.984Z,21.90
2022-08-10T13:52:49.827Z,22.20
2022-08-10T13:55:57.032Z,22.10
2022-08-10T13:58:59.182Z,21.90
2022-08-10T14:02:01.588Z,21.90
2022-08-10T14:05:03.946Z,22.50
2022-08-10T14:08:09.844Z,22.70
2022-08-10T14:11:13.044Z,21.60
2022-08-10T14:14:18.589Z,22.30
2022-08-10T14:17:21.807Z,21.90
2022-08-10T14:20:27.673Z,22.40
2022-08-10T14:23:29.533Z,21.60
2022-08-10T14:26:31.580Z,21.80
2022-08-10T14:29:38.202Z,21.90
2022-08-10T14:32:50.089Z,22.30
2022-08-10T14:36:21.549Z,21.50
2022-08-10T14:39:21.436Z,21.60
2022-08-10T14:42:27.992Z,21.80
2022-08-10T14:45:32.991Z,23.00
2022-08-10T14:48:39.258Z,22.20
2022-08-10T14:51:44.241Z,22.10
2022-08-10T14:54:49.424Z,24.10
2022-08-10T14:58:19.000Z,21.90
2022-08-10T15:01:17.793Z,22.40
2022-08-10T15:04:23.191Z,22.20
2022-08-10T15:07:26.963Z,22.80
2022-08-10T15:10:28.869Z,24.20
2022-08-10T15:13:36.103Z,23.50
2022-08-10T15:16:38.218Z,22.10
2022-08-10T15:20:02.461Z,22.30
2022-08-10T15:23:07.415Z,23.60
2022-08-10T15:26:11.297Z,22.40
2022-08-10T15:29:25.464Z,22.20
2022-08-10T15:32:33.713Z,24.90
2022-08-10T15:35:36.444Z,22.20
2022-08-10T15:38:40.533Z,23.60
2022-08-10T15:41:59.204Z,22.80
2022-08-10T15:45:02.360Z,23.00
2022-08-10T15:48:06.106Z,23.00
2022-08-10T15:51:13.585Z,22.30
2022-08-10T15:54:33.680Z,22.50
2022-08-10T15:57:38.165Z,22.40
2022-08-10T16:00:45.785Z,22.90
2022-08-10T16:03:54.753Z,23.00
2022-08-10T16:07:10.687Z,23.90
2022-08-10T16:10:25.658Z,22.70
2022-08-10T16:13:59.492Z,22.60
2022-08-10T16:16:57.595Z,24.00
2022-08-10T16:20:00.480Z,22.90
2022-08-10T16:23:05.575Z,22.60
2022-08-10T16:26:15.650Z,22.60
2022-08-10T16:29:24.690Z,23.80
2022-08-10T16:32:27.358Z,22.10
2022-08-10T16:35:30.952Z,23.80
2022-08-10T16:38:42.043Z,22.70
2022-08-10T16:42:03.080Z,22.50
2022-08-10T16:45:11.943Z,22.20
2022-08-10T16:48:15.083Z,22.50
2022-08-10T16:51:38.480Z,22.10
2022-08-10T16:54:41.571Z,22.50
2022-08-10T16:57:45.277Z,22.80
2022-08-10T17:00:48.195Z,22.80
2022-08-10T17:04:06.037Z,23.30
2022-08-10T17:07:13.802Z,22.90
2022-08-10T17:10:18.392Z,22.80
2022-08-10T17:13:21.254Z,23.10
2022-08-10T17:16:24.164Z,23.20
2022-08-10T17:19:27.836Z,23.50
2022-08-10T17:22:34.349Z,23.40
2022-08-10T17:25:46.200Z,23.60
2022-08-10T17:28:56.287Z,23.40
2022-08-10T17:32:06.118Z,24.30
2022-08-10T17:35:09.285Z,24.40
2022-08-10T17:38:14.189Z,23.70
2022-08-10T17:41:21.498Z,24.20
2022-08-10T17:44:23.874Z,24.00
2022-08-10T17:47:28.003Z,26.60
2022-08-10T17:50:33.833Z,25.40
2022-08-10T17:53:40.313Z,24.80
2022-08-10T17:56:42.583Z,24.30
2022-08-10T17:59:45.324Z,24.50
2022-08-10T18:02:48.823Z,24.90
2022-08-10T18:05:56.224Z,25.50
2022-08-10T18:09:01.280Z,25.20
2022-08-10T18:12:10.450Z,25.20
2022-08-10T18:15:22.316Z,27.10
2022-08-10T18:18:28.078Z,25.60
2022-08-10T18:21:30.685Z,26.40
2022-08-10T18:24:36.850Z,27.90
2022-08-10T18:28:00.676Z,26.40
2022-08-10T18:31:05.903Z,26.40
2022-08-10T18:34:08.492Z,26.80
2022-08-10T18:37:20.226Z,27.80
2022-08-10T18:40:23.205Z,26.80
2022-08-10T18:44:07.543Z,28.70
2022-08-10T18:47:08.895Z,27.10
2022-08-10T18:50:19.114Z,28.00
2022-08-10T18:53:33.062Z,30.40
2022-08-10T18:56:53.800Z,27.90
2022-08-10T19:00:08.599Z,29.90
2022-08-10T19:03:18.722Z,29.60
2022-08-10T19:06:33.617Z,30.10
2022-08-10T19:09:47.310Z,29.50
2022-08-10T19:12:53.146Z,28.70
2022-08-10T19:15:59.245Z,31.10
2022-08-10T19:19:22.103Z,29.30
2022-08-10T19:22:26.863Z,31.70
2022-08-10T19:26:43.362Z,30.30
2022-08-10T19:29:09.988Z,31.10
2022-08-10T19:32:34.887Z,31.70
2022-08-10T19:36:03.479Z,33.20
2022-08-10T19:39:18.379Z,31.20
2022-08-10T19:42:30.143Z,32.10
2022-08-10T19:46:02.096Z,33.50
2022-08-10T19:49:05.332Z,32.10
2022-08-10T19:52:19.308Z,32.50
2022-08-10T19:55:39.599Z,33.20
2022-08-10T19:58:44.725Z,33.00
2022-08-10T20:01:54.527Z,34.00
2022-08-10T20:05:18.954Z,31.90
2022-08-10T20:08:28.328Z,33.80
2022-08-10T20:11:42.535Z,33.80
2022-08-10T20:15:02.915Z,32.90
2022-08-10T20:18:13.944Z,31.60
2022-08-10T20:21:28.023Z,33.40
2022-08-10T20:24:31.244Z,33.10
2022-08-10T20:27:59.498Z,32.10
2022-08-10T20:31:21.542Z,33.60
2022-08-10T20:34:30.342Z,31.90
2022-08-10T20:37:44.913Z,33.70
2022-08-10T20:41:11.300Z,34.10
2022-08-10T20:44:22.519Z,32.50
2022-08-10T20:47:42.570Z,33.30
2022-08-10T20:50:57.795Z,34.60
2022-08-10T20:54:01.882Z,32.40
2022-08-10T20:57:56.785Z,33.20
2022-08-10T21:00:49.901Z,33.00
2022-08-10T21:03:58.663Z,34.80
2022-08-10T21:07:22.195Z,34.00
2022-08-10T21:10:37.626Z,34.70
2022-08-10T21:13:45.444Z,32.90
2022-08-10T21:17:06.185Z,35.20
2022-08-10T21:20:28.811Z,36.60
2022-08-10T21:23:37.900Z,36.70
2022-08-10T21:26:40.292Z,35.70
2022-08-10T21:30:08.834Z,35.30
2022-08-10T21:33:17.770Z,34.90
2022-08-10T21:36:24.371Z,34.90
2022-08-10T21:39:42.462Z,36.30
2022-08-10T21:43:04.459Z,34.30
2022-08-10T21:46:12.557Z,35.00
2022-08-10T21:49:17.078Z,35.50
2022-08-10T21:52:28.529Z,36.20
2022-08-10T21:55:57.166Z,36.10
2022-08-10T21:59:02.811Z,35.60
2022-08-10T22:02:07.113Z,36.80
2022-08-10T22:05:09.030Z,34.50
2022-08-10T22:08:12.306Z,36.20
2022-08-10T22:11:17.605Z,35.30
2022-08-10T22:14:26.546Z,36.10
2022-08-10T22:17:59.510Z,36.90
2022-08-10T22:21:15.812Z,35.20
2022-08-10T22:24:20.446Z,35.50
2022-08-10T22:31:26.181Z,35.20
2022-08-10T22:31:28.473Z,35.50
2022-08-10T22:34:23.307Z,35.60
2022-08-10T22:37:31.366Z,36.70
2022-08-10T22:40:33.364Z,35.50
2022-08-10T22:43:37.657Z,35.50
2022-08-10T22:46:41.768Z,35.90
2022-08-10T22:49:43.841Z,37.50
2022-08-10T22:52:57.303Z,36.90
2022-08-10T22:56:06.199Z,37.80
2022-08-10T22:59:08.778Z,36.30
2022-08-10T23:02:12.017Z,38.50
2022-08-10T23:05:17.321Z,36.70
2022-08-10T23:08:30.676Z,36.90
2022-08-10T23:11:35.485Z,39.00
2022-08-10T23:14:39.947Z,37.00
2022-08-10T23:18:01.875Z,37.00
2022-08-10T23:21:06.199Z,37.20
2022-08-10T23:24:09.153Z,37.50
2022-08-10T23:27:37.629Z,38.60
2022-08-10T23:30:38.819Z,38.30
2022-08-10T23:33:47.176Z,39.40
2022-08-10T23:36:49.896Z,38.30
2022-08-10T23:39:52.757Z,39.20
2022-08-10T23:42:56.259Z,40.30
2022-08-10T23:46:00.036Z,40.70
2022-08-10T23:49:02.600Z,40.00
2022-08-10T23:52:12.802Z,39.60
2022-08-10T23:55:21.855Z,39.60
2022-08-10T23:58:32.991Z,40.80
